• Join FlightAware (Why Join?)
  • Login
  • US Flag 
11:19PM EST


 

Airport Tracker/Info


-or-


 

Live Flight TrackerFlight Track Log ✈ FDX1578 ✈ 25-Apr-2014 ✈ KMEM - KBUF

Flight Track Log - Related Links

Times and Time Zones

All times are in EDT time to prevent confusion due to time zone crossing. See the FDX1578 flight status page for this flight to view local times or setup timezone preferences in your user account.

Time Position Orientation Groundspeed Altitude Reporting Facility
EDT Latitude Longitude Course Direction KTS MPH feet Rate Location/Type
05:10AM 35.0500 -89.9667 58° Northeast 177 204 1,800  Level KMEM
05:11AM 35.1167 -89.9000 39° Northeast 271 312 5,800 3,682 Climbing KMEM
05:12AM 35.1667 -89.8167 54° Northeast 295 339 9,900 3,044 Climbing KMEM
05:14AM 35.2361 -89.7233 48° Northeast 360 414 12,700 2,496 Climbing Memphis Center
05:15AM 35.3119 -89.6272 46° Northeast 386 444 15,600 2,902 Climbing Memphis Center
05:16AM 35.5458 -89.2751 58° Northeast  Level FlightAware Approximate
05:16AM 35.3972 -89.5269 44° Northeast 414 476 18,600  Level Memphis Center
05:17AM 35.4858 -89.4197 45° Northeast 438 504 21,300 2,826 Climbing Memphis Center
05:18AM 35.5969 -89.2853 45° Northeast 461 531 24,300 2,529 Climbing Memphis Center
05:19AM 35.6872 -89.1739 45° Northeast 479 551 26,400 1,934 Climbing Memphis Center
05:20AM 35.7867 -89.0522 45° Northeast 498 573 28,200 2,083 Climbing Memphis Center
05:21AM 35.8861 -88.9264 46° Northeast 509 586 30,600 2,182 Climbing Memphis Center
05:22AM 35.9853 -88.8044 45° Northeast 510 587 32,600 1,918 Climbing Memphis Center
05:23AM 36.0847 -88.6822 45° Northeast 510 587 34,500 1,190 Climbing Memphis Center
05:24AM 36.1853 -88.5581 45° Northeast 510 587 35,000 248 Climbing Memphis Center
05:25AM 36.2858 -88.4306 46° Northeast 514 592 35,000  Level Memphis Center
05:26AM 36.3844 -88.3081 45° Northeast 512 589 35,000  Level Memphis Center
05:27AM 36.4822 -88.1847 45° Northeast 508 585 35,000  Level Memphis Center
05:28AM 36.5906 -88.0461 46° Northeast 507 583 35,000  Level Memphis Center
05:29AM 36.6914 -87.9197 45° Northeast 507 583 35,000 283 Level Memphis Center
05:35AM 37.3033 -87.1299 46° Northeast 516 594 37,000 305 Climbing FlightAware ADS-B (EPWR / WRO)
05:35AM 37.3508 -87.0679 46° Northeast 521 600 37,000  Level FlightAware ADS-B (EPWR / WRO)
05:36AM 37.4025 -87.0003 46° Northeast 523 602 37,000  Level FlightAware ADS-B (EPWR / WRO)
05:37AM 37.4807 -86.8974 46° Northeast 523 602 37,000  Level FlightAware ADS-B (EPWR / WRO)
05:37AM 37.5530 -86.8022 46° Northeast 519 597 37,000  Level FlightAware ADS-B (EPWR / WRO)
05:38AM 37.5932 -86.7492 46° Northeast 518 596 37,000  Level FlightAware ADS-B (EPWR / WRO)
05:39AM 37.6793 -86.6354 47° Northeast 516 594 37,000  Level FlightAware ADS-B (EPWR / WRO)
05:39AM 37.7546 -86.5354 47° Northeast 519 597 37,000  Level FlightAware ADS-B (EPWR / WRO)
05:40AM 37.8007 -86.4741 47° Northeast 521 600 37,000  Level FlightAware ADS-B (EPWR / WRO)
05:41AM 37.8798 -86.3684 47° Northeast 519 597 37,000  Level FlightAware ADS-B (EPWR / WRO)
05:41AM 37.9517 -86.2720 47° Northeast 521 600 37,000  Level FlightAware ADS-B (EPWR / WRO)
05:42AM 38.0015 -86.2055 47° Northeast 526 605 37,000  Level FlightAware ADS-B (EPWR / WRO)
05:43AM 38.0801 -86.0996 47° Northeast 526 605 37,000  Level FlightAware ADS-B (EPWR / WRO)
05:43AM 38.1296 -86.0329 47° Northeast 524 603 37,000  Level FlightAware ADS-B (EPWR / WRO)
05:44AM 38.1911 -85.9495 47° Northeast 523 602 37,000  Level FlightAware ADS-B (EPWR / WRO)
05:45AM 38.2743 -85.8365 47° Northeast 527 606 37,000  Level FlightAware ADS-B
05:46AM 38.3759 -85.6983 47° Northeast 512 589 37,000  Level FlightAware ADS-B
05:48AM 38.6282 -85.3522 47° Northeast 517 595 37,000  Level FlightAware ADS-B (KCVG)
05:49AM 38.6767 -85.2852 47° Northeast 517 595 37,000  Level FlightAware ADS-B (KCVG)
05:50AM 38.7737 -85.1505 47° Northeast 522 601 37,000  Level FlightAware ADS-B (KCVG)
05:50AM 38.7837 -85.1367 48° Northeast 524 603 37,000  Level FlightAware ADS-B (KCVG)
05:51AM 38.8880 -84.9914 48° Northeast 522 601 37,000  Level FlightAware ADS-B (KCVG)
05:52AM 38.9607 -84.8898 48° Northeast 519 597 37,000  Level FlightAware ADS-B (KCVG)
05:52AM 39.0240 -84.8008 48° Northeast 518 596 37,000  Level FlightAware ADS-B (KCVG)
05:53AM 39.0785 -84.7241 48° Northeast 526 605 37,000  Level FlightAware ADS-B (KCVG)
05:54AM 39.1480 -84.6259 48° Northeast 535 616 37,000  Level FlightAware ADS-B (KCVG)
05:55AM 39.2708 -84.4528 48° Northeast 532 612 37,000  Level Indianapolis Center
05:56AM 39.3694 -84.3125 48° Northeast 531 611 37,000  Level Indianapolis Center
05:57AM 39.4711 -84.1669 48° Northeast 538 619 37,000  Level Indianapolis Center
05:58AM 39.5708 -84.0231 48° Northeast 539 620 37,000  Level Indianapolis Center
05:59AM 39.6686 -83.8783 49° Northeast 536 617 37,000  Level Indianapolis Center
06:00AM 39.7658 -83.7314 49° Northeast 536 617 37,000  Level Indianapolis Center
06:01AM 39.8622 -83.5858 49° Northeast 536 617 37,000  Level Indianapolis Center
06:02AM 39.9589 -83.4392 49° Northeast 536 617 37,000  Level Indianapolis Center
06:03AM 40.0617 -83.2844 49° Northeast 530 610 37,000  Level Indianapolis Center
06:04AM 40.1558 -83.1408 49° Northeast 524 603 37,000  Level Indianapolis Center
06:05AM 40.2508 -82.9947 50° Northeast 524 603 37,000  Level Indianapolis Center
06:06AM 40.3456 -82.8492 49° Northeast 524 603 37,000  Level Indianapolis Center
06:07AM 40.4378 -82.7069 50° Northeast 523 602 37,000  Level Indianapolis Center
06:08AM 40.5328 -82.5603 50° Northeast 523 602 37,000  Level Indianapolis Center
06:13AM 41.0319 -81.7710 50° Northeast 519 597 37,000  Level FlightAware ADS-B (EPLB / LUZ)
06:14AM 41.1068 -81.6511 51° Northeast 513 590 37,000 -48 Level FlightAware ADS-B (EPLB / LUZ)
06:15AM 41.2181 -81.4721 51° Northeast 514 592 36,900 -1,163 Descending FlightAware ADS-B (EPLB / LUZ)
06:16AM 41.2845 -81.3646 51° Northeast 515 593 34,500 -2,905 Descending FlightAware ADS-B (EPLB / LUZ)
06:17AM 41.3612 -81.2395 51° Northeast 517 595 32,300 -3,263 Descending FlightAware ADS-B (EPLB / LUZ)
06:17AM 41.3897 -81.1929 50° Northeast 516 594 31,400 -3,333 Descending FlightAware ADS-B (CYYZ)
06:18AM 41.4298 -81.1277 51° Northeast 514 592 29,800 -2,800 Descending FlightAware ADS-B (EPLB / LUZ)
06:18AM 41.4247 -81.1360 50° Northeast 513 590 30,000 -3,103 Climbing FlightAware ADS-B (CYYZ)
06:18AM 41.4708 -81.0607 50° Northeast 513 590 28,300 -3,636 Descending FlightAware ADS-B (CYYZ)
06:18AM 41.4839 -81.0393 51° Northeast 511 588 28,000 -486 Descending FlightAware ADS-B (EPLB / LUZ)
06:19AM 41.5279 -80.9671 51° Northeast 507 583 28,000  Level FlightAware ADS-B (EPLB / LUZ)
06:20AM 41.5781 -80.8844 51° Northeast 521 600 28,000  Level FlightAware ADS-B (EPLB / LUZ)
06:20AM 41.6396 -80.7829 51° Northeast 521 600 28,000  Level FlightAware ADS-B (EPLB / LUZ)
06:21AM 41.6841 -80.7094 51° Northeast 523 602 28,000 -571 Level FlightAware ADS-B (EPLB / LUZ)
06:22AM 41.7991 -80.5185 51° Northeast 521 600 27,000 -872 Descending FlightAware ADS-B (EPLB / LUZ)
06:23AM 41.8637 -80.4109 51° Northeast 506 582 26,300 -986 Descending FlightAware ADS-B (CYYZ)
06:23AM 41.9073 -80.3378 51° Northeast 502 578 25,800 -1,000 Descending FlightAware ADS-B (CYYZ)
06:24AM 41.9477 -80.2700 51° Northeast 502 578 25,300 -1,082 Descending FlightAware ADS-B (CYYZ)
06:24AM 41.9949 -80.1905 51° Northeast 498 573 24,700 -1,082 Descending FlightAware ADS-B (CYYZ)
06:25AM 42.0370 -80.1195 51° Northeast 495 570 24,200 -1,017 Descending FlightAware ADS-B (CYYZ)
06:25AM 42.0805 -80.0459 51° Northeast 492 566 23,700 -1,017 Descending FlightAware ADS-B (CYYZ)
06:26AM 42.1218 -79.9759 51° Northeast 487 560 23,200 -1,100 Descending FlightAware ADS-B (CYYZ)
06:26AM 42.1641 -79.9038 51° Northeast 480 552 22,600 -1,279 Descending FlightAware ADS-B (CYYZ)
06:27AM 42.2056 -79.8330 51° Northeast 481 554 21,900 -2,100 Descending FlightAware ADS-B (CYYZ)
06:27AM 42.2461 -79.7641 51° Northeast 477 549 20,500 -2,903 Descending FlightAware ADS-B (CYYZ)
06:27AM 42.2490 -79.7592 51° Northeast 477 549 20,400 -2,710 Descending FlightAware ADS-B (EPLB / LUZ)
06:28AM 42.2879 -79.6929 51° Northeast 469 540 19,100 -2,706 Descending FlightAware ADS-B (CYYZ)
06:28AM 42.3166 -79.6437 52° Northeast 461 531 18,100 -2,690 Descending FlightAware ADS-B (EPLB / LUZ)
06:28AM 42.3272 -79.6256 51° Northeast 458 527 17,800 -2,368 Descending FlightAware ADS-B (CYYZ)
06:29AM 42.3654 -79.5592 52° Northeast 439 505 16,600 -2,471 Descending FlightAware ADS-B (CYYZ)
06:29AM 42.3667 -79.5570 52° Northeast 438 504 16,400 -2,600 Descending FlightAware ADS-B (EPLB / LUZ)
06:29AM 42.4029 -79.4943 51° Northeast 428 493 15,300 -2,500 Descending FlightAware ADS-B (CYYZ)
06:29AM 42.4070 -79.4874 51° Northeast 429 494 14,900 -2,600 Descending FlightAware ADS-B (EPLB / LUZ)
06:30AM 42.4454 -79.4380 40° Northeast 427 491 14,000 -2,471 Descending FlightAware ADS-B (CYYZ)
06:30AM 42.4895 -79.3863 40° Northeast 417 480 12,800 -2,441 Descending FlightAware ADS-B (CYYZ)
06:31AM 42.5331 -79.3358 40° Northeast 407 468 11,600 -2,462 Descending FlightAware ADS-B (CYYZ)
06:31AM 42.5316 -79.3374 40° Northeast 407 468 11,200 -1,600 Descending FlightAware ADS-B (EPLB / LUZ)
06:31AM 42.5749 -79.2874 40° Northeast 386 444 10,800 -960 Descending FlightAware ADS-B (CYYZ)
06:32AM 42.6134 -79.2415 41° Northeast 357 411 10,400 -706 Descending FlightAware ADS-B (CYYZ)
06:32AM 42.6183 -79.2356 42° Northeast 353 406 10,400 -400 Level FlightAware ADS-B (EPLB / LUZ)
06:32AM 42.6490 -79.1986 41° Northeast 329 379 10,200 -600 Descending FlightAware ADS-B (CYYZ)
06:32AM 42.6636 -79.1810 42° Northeast 324 373 10,000 -800 Descending FlightAware ADS-B (EPLB / LUZ)
06:32AM 42.6661 -79.1781 41° Northeast 320 368 10,000 -1,500 Level FlightAware ADS-B (CYYZ)
06:33AM 42.6827 -79.1580 41° Northeast 318 366 9,600 -1,600 Descending FlightAware ADS-B (CYYZ)
06:33AM 42.6994 -79.1380 41° Northeast 316 364 9,200 -1,548 Descending FlightAware ADS-B (CYYZ)
06:33AM 42.7149 -79.1195 41° Northeast 313 360 8,800 -1,600 Descending FlightAware ADS-B (CYYZ)
06:33AM 42.7312 -79.0997 41° Northeast 310 357 8,400 -1,448 Descending FlightAware ADS-B (CYYZ)
06:34AM 42.7472 -79.0806 41° Northeast 306 352 8,100 -1,400 Descending FlightAware ADS-B (CYYZ)
06:34AM 42.7640 -79.0606 41° Northeast 302 348 7,700 -1,355 Descending FlightAware ADS-B (CYYZ)
06:34AM 42.7795 -79.0424 40° Northeast 299 344 7,400 -1,161 Descending FlightAware ADS-B (CYYZ)
06:34AM 42.7957 -79.0237 39° Northeast 294 338 7,100 -947 Descending FlightAware ADS-B (CYYZ)
06:34AM 42.8008 -79.0186 34° Northeast 292 336 7,100 -300 Level FlightAware ADS-B (CYYZ)
06:35AM 42.8186 -79.0038 30° Northeast 291 335 7,000 -171 Descending FlightAware ADS-B (CYYZ)
06:35AM 42.8414 -78.9857 30° Northeast 291 335 7,000  Level FlightAware ADS-B (CYYZ)
06:35AM 42.8649 -78.9667 30° Northeast 293 337 7,000  Level FlightAware ADS-B (CYYZ)
06:36AM 42.8877 -78.9483 30° Northeast 294 338 7,000  Level FlightAware ADS-B (CYYZ)
06:36AM 42.9116 -78.9287 31° Northeast 295 339 7,000  Level FlightAware ADS-B (CYYZ)
06:36AM 42.9176 -78.9232 36° Northeast 295 339 7,000 -900 Level FlightAware ADS-B (CYYZ)
06:36AM 42.9332 -78.9060 39° Northeast 291 335 6,700 -968 Descending FlightAware ADS-B (CYYZ)
06:37AM 42.9489 -78.8886 38° Northeast 283 326 6,500 -1,200 Descending FlightAware ADS-B (CYYZ)
06:37AM 42.9637 -78.8730 37° Northeast 270 311 6,100 -1,200 Descending FlightAware ADS-B (CYYZ)
06:37AM 42.9790 -78.8575 36° Northeast 255 293 5,900 -968 Descending FlightAware ADS-B (CYYZ)
06:37AM 42.9921 -78.8441 36° Northeast 238 274 5,600 -1,200 Descending FlightAware ADS-B (CYYZ)
06:38AM 43.0055 -78.8304 37° Northeast 229 264 5,300 -1,680 Descending FlightAware ADS-B (CYYZ)
06:38AM 43.0125 -78.8232 37° Northeast 229 264 4,900 -2,143 Descending FlightAware ADS-B (EPLB / LUZ)
06:38AM 43.0172 -78.8183 37° Northeast 229 264 4,800 -1,895 Descending FlightAware ADS-B (CYYZ)
06:38AM 43.0306 -78.8042 37° Northeast 229 264 4,300 -2,000 Descending FlightAware ADS-B (CYYZ)
06:38AM 43.0434 -78.7905 37° Northeast 231 266 3,800 -1,935 Descending FlightAware ADS-B (CYYZ)
06:39AM 43.0553 -78.7781 36° Northeast 229 264 3,300 -1,600 Descending FlightAware ADS-B (CYYZ)
06:39AM 43.0676 -78.7653 40° Northeast 222 255 3,000 -900 Descending FlightAware ADS-B (CYYZ)
06:39AM 43.0715 -78.7585 55° Northeast 209 241 3,000 -400 Level FlightAware ADS-B (CYYZ)
06:39AM 43.0746 -78.7469 79° East 191 220 2,900 -429 Descending FlightAware ADS-B (CYYZ)
06:39AM 43.0746 -78.7412 87° East 186 214 2,900 -400 Level FlightAware ADS-B (CYYZ)
06:39AM 43.0724 -78.7312 110° East 172 198 2,800 -256 Descending FlightAware ADS-B (CYYZ)
06:42AM 42.9922 -78.6632 211° Southwest 156 180 2,200 -323 Descending FlightAware ADS-B (CYYZ)
06:42AM 42.9841 -78.6721 211° Southwest 156 180 1,900 -1,154 Descending FlightAware ADS-B (CYYZ)
06:42AM 42.9780 -78.6805 226° Southwest 142 163 1,700 -806 Descending FlightAware ADS-B (CYYZ)
06:43AM 42.9500 -78.7167 226° Southwest 138 159 1,000 -778 Descending Buffalo TRACON